sensor_id;sensor_type;location;lat;lon;timestamp;temperature;humidity
6468;DHT22;3267;48.794;9.928;2023-06-22T04:03:16;22.30;68.30
6468;DHT22;3267;48.794;9.928;2023-06-22T04:05:46;22.80;68.10
6468;DHT22;3267;48.794;9.928;2023-06-22T04:08:13;22.30;67.20
6468;DHT22;3267;48.794;9.928;2023-06-22T04:10:39;22.30;67.10
6468;DHT22;3267;48.794;9.928;2023-06-22T04:13:05;22.20;68.50
6468;DHT22;3267;48.794;9.928;2023-06-22T04:15:30;22.30;67.70
6468;DHT22;3267;48.794;9.928;2023-06-22T04:17:56;22.30;66.50
6468;DHT22;3267;48.794;9.928;2023-06-22T04:20:23;22.30;67.00
6468;DHT22;3267;48.794;9.928;2023-06-22T04:22:54;22.30;67.70
6468;DHT22;3267;48.794;9.928;2023-06-22T04:25:20;22.30;67.70
6468;DHT22;3267;48.794;9.928;2023-06-22T04:27:46;22.30;68.30
6468;DHT22;3267;48.794;9.928;2023-06-22T04:30:12;22.30;67.90
6468;DHT22;3267;48.794;9.928;2023-06-22T04:32:40;22.30;68.20
6468;DHT22;3267;48.794;9.928;2023-06-22T04:35:06;22.30;67.70
6468;DHT22;3267;48.794;9.928;2023-06-22T04:37:33;22.30;68.60
6468;DHT22;3267;48.794;9.928;2023-06-22T04:39:59;22.30;69.10
6468;DHT22;3267;48.794;9.928;2023-06-22T04:42:28;22.30;69.00
6468;DHT22;3267;48.794;9.928;2023-06-22T04:44:53;22.40;69.80
6468;DHT22;3267;48.794;9.928;2023-06-22T04:47:19;22.40;68.80
6468;DHT22;3267;48.794;9.928;2023-06-22T04:49:45;22.40;68.00
6468;DHT22;3267;48.794;9.928;2023-06-22T04:52:12;22.50;68.30
6468;DHT22;3267;48.794;9.928;2023-06-22T04:54:39;22.70;70.70
6468;DHT22;3267;48.794;9.928;2023-06-22T04:57:07;22.50;70.00
6468;DHT22;3267;48.794;9.928;2023-06-22T04:59:37;22.50;67.40
6468;DHT22;3267;48.794;9.928;2023-06-22T05:02:04;22.60;67.60
6468;DHT22;3267;48.794;9.928;2023-06-22T05:04:31;22.70;67.40
6468;DHT22;3267;48.794;9.928;2023-06-22T05:06:58;22.80;66.70
6468;DHT22;3267;48.794;9.928;2023-06-22T05:09:23;22.80;67.00
6468;DHT22;3267;48.794;9.928;2023-06-22T05:11:50;23.00;66.90
6468;DHT22;3267;48.794;9.928;2023-06-22T05:14:16;23.00;66.50
6468;DHT22;3267;48.794;9.928;2023-06-22T05:16:42;23.10;66.30
6468;DHT22;3267;48.794;9.928;2023-06-22T05:19:08;24.50;67.60
6468;DHT22;3267;48.794;9.928;2023-06-22T05:21:35;23.20;65.90
6468;DHT22;3267;48.794;9.928;2023-06-22T05:24:01;23.90;66.00
6468;DHT22;3267;48.794;9.928;2023-06-22T05:26:29;23.50;63.70
6468;DHT22;3267;48.794;9.928;2023-06-22T05:28:56;23.70;64.00
6468;DHT22;3267;48.794;9.928;2023-06-22T05:31:22;23.80;64.10
6468;DHT22;3267;48.794;9.928;2023-06-22T05:33:52;23.90;64.50
6468;DHT22;3267;48.794;9.928;2023-06-22T05:36:18;24.00;65.40
6468;DHT22;3267;48.794;9.928;2023-06-22T05:38:53;24.00;66.80
6468;DHT22;3267;48.794;9.928;2023-06-22T05:41:19;23.90;66.00
6468;DHT22;3267;48.794;9.928;2023-06-22T05:43:45;24.00;63.80
6468;DHT22;3267;48.794;9.928;2023-06-22T05:46:10;24.10;65.50
6468;DHT22;3267;48.794;9.928;2023-06-22T05:48:36;24.20;65.10
6468;DHT22;3267;48.794;9.928;2023-06-22T05:51:02;24.30;64.40
6468;DHT22;3267;48.794;9.928;2023-06-22T05:53:28;24.50;65.30
6468;DHT22;3267;48.794;9.928;2023-06-22T05:55:53;24.50;65.30
6468;DHT22;3267;48.794;9.928;2023-06-22T05:58:19;24.50;64.40
6468;DHT22;3267;48.794;9.928;2023-06-22T06:00:44;24.70;64.50
6468;DHT22;3267;48.794;9.928;2023-06-22T06:03:11;24.60;64.70
6468;DHT22;3267;48.794;9.928;2023-06-22T06:05:37;24.70;65.70
6468;DHT22;3267;48.794;9.928;2023-06-22T06:08:05;24.70;64.10
6468;DHT22;3267;48.794;9.928;2023-06-22T06:10:35;24.70;64.80
6468;DHT22;3267;48.794;9.928;2023-06-22T06:13:01;24.80;65.60
6468;DHT22;3267;48.794;9.928;2023-06-22T06:15:30;24.70;64.40
6468;DHT22;3267;48.794;9.928;2023-06-22T06:17:56;24.70;64.90
6468;DHT22;3267;48.794;9.928;2023-06-22T06:20:23;24.80;65.80
6468;DHT22;3267;48.794;9.928;2023-06-22T06:22:49;24.90;64.60
6468;DHT22;3267;48.794;9.928;2023-06-22T06:25:16;24.90;64.80
6468;DHT22;3267;48.794;9.928;2023-06-22T06:27:46;25.00;64.40
6468;DHT22;3267;48.794;9.928;2023-06-22T06:30:14;25.10;64.40
6468;DHT22;3267;48.794;9.928;2023-06-22T06:32:40;25.00;64.00
6468;DHT22;3267;48.794;9.928;2023-06-22T06:35:07;25.20;64.60
6468;DHT22;3267;48.794;9.928;2023-06-22T06:37:38;25.20;64.40
6468;DHT22;3267;48.794;9.928;2023-06-22T06:40:06;25.30;64.30
6468;DHT22;3267;48.794;9.928;2023-06-22T06:42:39;25.40;64.20
6468;DHT22;3267;48.794;9.928;2023-06-22T06:45:08;25.60;63.90
6468;DHT22;3267;48.794;9.928;2023-06-22T06:47:34;25.70;64.70
6468;DHT22;3267;48.794;9.928;2023-06-22T06:49:59;25.60;63.40
6468;DHT22;3267;48.794;9.928;2023-06-22T06:52:26;25.60;63.90
6468;DHT22;3267;48.794;9.928;2023-06-22T06:54:55;25.60;63.80
6468;DHT22;3267;48.794;9.928;2023-06-22T06:57:20;25.70;63.90
6468;DHT22;3267;48.794;9.928;2023-06-22T06:59:46;25.70;63.60
6468;DHT22;3267;48.794;9.928;2023-06-22T07:02:12;25.70;63.50
6468;DHT22;3267;48.794;9.928;2023-06-22T07:04:37;27.90;65.60
6468;DHT22;3267;48.794;9.928;2023-06-22T07:07:03;26.00;64.70
6468;DHT22;3267;48.794;9.928;2023-06-22T07:09:29;26.00;63.30
6468;DHT22;3267;48.794;9.928;2023-06-22T07:11:54;26.10;64.30
6468;DHT22;3267;48.794;9.928;2023-06-22T07:14:20;26.00;63.70
6468;DHT22;3267;48.794;9.928;2023-06-22T07:16:46;26.00;63.10
6468;DHT22;3267;48.794;9.928;2023-06-22T07:19:12;26.20;63.10
6468;DHT22;3267;48.794;9.928;2023-06-22T07:21:38;26.20;63.20
6468;DHT22;3267;48.794;9.928;2023-06-22T07:24:05;26.50;63.40
6468;DHT22;3267;48.794;9.928;2023-06-22T07:26:31;26.50;65.80
6468;DHT22;3267;48.794;9.928;2023-06-22T07:28:57;26.50;64.10
6468;DHT22;3267;48.794;9.928;2023-06-22T07:31:26;26.60;65.70
6468;DHT22;3267;48.794;9.928;2023-06-22T07:33:52;26.60;63.00
6468;DHT22;3267;48.794;9.928;2023-06-22T07:36:18;26.80;63.50
6468;DHT22;3267;48.794;9.928;2023-06-22T07:38:44;26.80;64.80
6468;DHT22;3267;48.794;9.928;2023-06-22T07:41:09;27.00;64.20
6468;DHT22;3267;48.794;9.928;2023-06-22T07:43:35;26.90;64.50
6468;DHT22;3267;48.794;9.928;2023-06-22T07:46:05;27.50;64.00
6468;DHT22;3267;48.794;9.928;2023-06-22T07:48:32;27.20;65.10
6468;DHT22;3267;48.794;9.928;2023-06-22T07:50:58;27.20;64.00
6468;DHT22;3267;48.794;9.928;2023-06-22T07:53:24;27.20;63.40
6468;DHT22;3267;48.794;9.928;2023-06-22T07:55:50;27.40;64.20
6468;DHT22;3267;48.794;9.928;2023-06-22T07:58:15;27.40;63.70
6468;DHT22;3267;48.794;9.928;2023-06-22T08:00:41;27.30;63.50
6468;DHT22;3267;48.794;9.928;2023-06-22T08:03:07;27.40;63.20
6468;DHT22;3267;48.794;9.928;2023-06-22T08:05:33;27.50;63.30
6468;DHT22;3267;48.794;9.928;2023-06-22T08:08:00;27.60;63.10
6468;DHT22;3267;48.794;9.928;2023-06-22T08:10:25;27.70;63.00
6468;DHT22;3267;48.794;9.928;2023-06-22T08:12:51;27.80;64.10
6468;DHT22;3267;48.794;9.928;2023-06-22T08:15:18;27.90;63.90
6468;DHT22;3267;48.794;9.928;2023-06-22T08:17:44;28.10;64.90
6468;DHT22;3267;48.794;9.928;2023-06-22T08:20:11;28.20;65.10
6468;DHT22;3267;48.794;9.928;2023-06-22T08:22:41;28.30;64.90
6468;DHT22;3267;48.794;9.928;2023-06-22T08:25:07;28.40;65.10
6468;DHT22;3267;48.794;9.928;2023-06-22T08:27:34;28.50;65.80
6468;DHT22;3267;48.794;9.928;2023-06-22T08:30:00;28.60;64.80
6468;DHT22;3267;48.794;9.928;2023-06-22T08:32:27;28.60;63.70
6468;DHT22;3267;48.794;9.928;2023-06-22T08:34:56;28.70;65.40
6468;DHT22;3267;48.794;9.928;2023-06-22T08:37:23;28.80;64.10
6468;DHT22;3267;48.794;9.928;2023-06-22T08:39:56;28.90;65.90
6468;DHT22;3267;48.794;9.928;2023-06-22T08:42:24;29.60;64.10
6468;DHT22;3267;48.794;9.928;2023-06-22T08:44:53;29.00;65.00
6468;DHT22;3267;48.794;9.928;2023-06-22T08:47:19;29.10;64.40
6468;DHT22;3267;48.794;9.928;2023-06-22T08:49:45;29.10;63.30
6468;DHT22;3267;48.794;9.928;2023-06-22T08:52:11;29.20;63.30
6468;DHT22;3267;48.794;9.928;2023-06-22T08:54:38;29.20;62.60
6468;DHT22;3267;48.794;9.928;2023-06-22T08:57:04;29.40;63.20
6468;DHT22;3267;48.794;9.928;2023-06-22T08:59:29;29.40;62.70
6468;DHT22;3267;48.794;9.928;2023-06-22T09:01:56;30.50;64.30
6468;DHT22;3267;48.794;9.928;2023-06-22T09:04:22;29.60;63.10
6468;DHT22;3267;48.794;9.928;2023-06-22T09:06:48;29.80;63.90
6468;DHT22;3267;48.794;9.928;2023-06-22T09:09:16;29.90;65.50
6468;DHT22;3267;48.794;9.928;2023-06-22T09:11:42;29.90;62.40
6468;DHT22;3267;48.794;9.928;2023-06-22T09:14:08;30.10;63.90
6468;DHT22;3267;48.794;9.928;2023-06-22T09:16:34;30.10;63.70
6468;DHT22;3267;48.794;9.928;2023-06-22T09:19:00;30.20;62.50
6468;DHT22;3267;48.794;9.928;2023-06-22T09:21:25;30.20;62.50
6468;DHT22;3267;48.794;9.928;2023-06-22T09:23:51;30.20;63.20
6468;DHT22;3267;48.794;9.928;2023-06-22T09:26:21;30.40;60.90
6468;DHT22;3267;48.794;9.928;2023-06-22T09:28:46;30.40;61.30
6468;DHT22;3267;48.794;9.928;2023-06-22T09:31:12;30.50;60.60
6468;DHT22;3267;48.794;9.928;2023-06-22T09:33:40;30.50;62.40
6468;DHT22;3267;48.794;9.928;2023-06-22T09:36:06;30.60;62.50
6468;DHT22;3267;48.794;9.928;2023-06-22T09:38:38;30.70;62.00
6468;DHT22;3267;48.794;9.928;2023-06-22T09:41:04;30.80;61.30
6468;DHT22;3267;48.794;9.928;2023-06-22T09:43:31;30.90;61.40
6468;DHT22;3267;48.794;9.928;2023-06-22T09:45:57;31.00;61.50
6468;DHT22;3267;48.794;9.928;2023-06-22T09:48:23;31.40;60.90
6468;DHT22;3267;48.794;9.928;2023-06-22T09:50:49;31.20;59.80
6468;DHT22;3267;48.794;9.928;2023-06-22T09:53:14;31.20;60.10
6468;DHT22;3267;48.794;9.928;2023-06-22T09:55:40;31.20;59.90
6468;DHT22;3267;48.794;9.928;2023-06-22T09:58:06;31.30;59.20
6468;DHT22;3267;48.794;9.928;2023-06-22T10:00:31;31.50;59.80
6468;DHT22;3267;48.794;9.928;2023-06-22T10:02:58;31.40;60.50
6468;DHT22;3267;48.794;9.928;2023-06-22T10:05:24;31.40;60.00
6468;DHT22;3267;48.794;9.928;2023-06-22T10:07:50;31.60;60.10
6468;DHT22;3267;48.794;9.928;2023-06-22T10:10:16;31.70;61.00
6468;DHT22;3267;48.794;9.928;2023-06-22T10:12:45;31.90;61.10
6468;DHT22;3267;48.794;9.928;2023-06-22T10:15:11;31.90;60.90
6468;DHT22;3267;48.794;9.928;2023-06-22T10:17:37;32.20;60.70
6468;DHT22;3267;48.794;9.928;2023-06-22T10:20:02;32.30;60.30
6468;DHT22;3267;48.794;9.928;2023-06-22T10:22:41;32.50;60.10
6468;DHT22;3267;48.794;9.928;2023-06-22T10:25:08;32.60;59.60
6468;DHT22;3267;48.794;9.928;2023-06-22T10:27:34;32.60;58.70
6468;DHT22;3267;48.794;9.928;2023-06-22T10:30:00;32.90;60.00
6468;DHT22;3267;48.794;9.928;2023-06-22T10:32:26;32.90;60.90
6468;DHT22;3267;48.794;9.928;2023-06-22T10:34:53;33.10;60.00
6468;DHT22;3267;48.794;9.928;2023-06-22T10:37:19;33.20;60.30
6468;DHT22;3267;48.794;9.928;2023-06-22T10:42:12;33.60;71.90
6468;DHT22;3267;48.794;9.928;2023-06-22T10:47:06;33.80;60.60
6468;DHT22;3267;48.794;9.928;2023-06-22T10:49:32;34.00;59.60
6468;DHT22;3267;48.794;9.928;2023-06-22T10:51:58;34.10;59.30
6468;DHT22;3267;48.794;9.928;2023-06-22T10:54:24;34.20;58.80
6468;DHT22;3267;48.794;9.928;2023-06-22T10:56:49;34.20;57.10
6468;DHT22;3267;48.794;9.928;2023-06-22T10:59:16;34.20;57.20
6468;DHT22;3267;48.794;9.928;2023-06-22T11:01:41;34.30;57.80
6468;DHT22;3267;48.794;9.928;2023-06-22T11:04:07;34.40;59.30
6468;DHT22;3267;48.794;9.928;2023-06-22T11:06:33;34.50;59.00
6468;DHT22;3267;48.794;9.928;2023-06-22T11:08:58;34.50;58.10
6468;DHT22;3267;48.794;9.928;2023-06-22T11:11:25;34.60;58.50
6468;DHT22;3267;48.794;9.928;2023-06-22T11:13:52;34.70;58.50
6468;DHT22;3267;48.794;9.928;2023-06-22T11:16:17;34.70;58.50
6468;DHT22;3267;48.794;9.928;2023-06-22T11:18:43;34.70;57.80
6468;DHT22;3267;48.794;9.928;2023-06-22T11:21:10;34.70;57.70
6468;DHT22;3267;48.794;9.928;2023-06-22T11:23:35;34.80;58.00
6468;DHT22;3267;48.794;9.928;2023-06-22T11:26:01;35.00;58.30
6468;DHT22;3267;48.794;9.928;2023-06-22T11:28:27;35.10;58.20
6468;DHT22;3267;48.794;9.928;2023-06-22T11:30:53;35.10;58.10
6468;DHT22;3267;48.794;9.928;2023-06-22T11:33:19;35.30;59.10
6468;DHT22;3267;48.794;9.928;2023-06-22T11:40:36;35.50;72.70
6468;DHT22;3267;48.794;9.928;2023-06-22T11:43:02;35.50;57.80
6468;DHT22;3267;48.794;9.928;2023-06-22T11:45:28;35.60;58.60
6468;DHT22;3267;48.794;9.928;2023-06-22T11:47:53;35.60;58.00
6468;DHT22;3267;48.794;9.928;2023-06-22T11:50:20;35.60;58.00
6468;DHT22;3267;48.794;9.928;2023-06-22T11:52:46;35.60;56.60
6468;DHT22;3267;48.794;9.928;2023-06-22T11:55:11;35.60;56.80
6468;DHT22;3267;48.794;9.928;2023-06-22T11:57:38;35.60;56.90
6468;DHT22;3267;48.794;9.928;2023-06-22T12:00:04;35.60;56.30
6468;DHT22;3267;48.794;9.928;2023-06-22T12:02:41;35.60;56.00
6468;DHT22;3267;48.794;9.928;2023-06-22T12:05:07;35.70;55.40
6468;DHT22;3267;48.794;9.928;2023-06-22T12:07:33;35.60;55.60
6468;DHT22;3267;48.794;9.928;2023-06-22T12:09:59;35.60;55.40
6468;DHT22;3267;48.794;9.928;2023-06-22T12:12:24;35.60;55.00
6468;DHT22;3267;48.794;9.928;2023-06-22T12:14:50;35.50;56.10
6468;DHT22;3267;48.794;9.928;2023-06-22T12:17:16;35.50;56.20
6468;DHT22;3267;48.794;9.928;2023-06-22T12:19:41;35.40;55.40
6468;DHT22;3267;48.794;9.928;2023-06-22T12:22:07;35.30;56.00
6468;DHT22;3267;48.794;9.928;2023-06-22T12:24:32;35.20;55.10
6468;DHT22;3267;48.794;9.928;2023-06-22T12:26:58;35.10;54.90
6468;DHT22;3267;48.794;9.928;2023-06-22T12:34:16;34.90;65.20
6468;DHT22;3267;48.794;9.928;2023-06-22T12:36:41;35.30;65.00
6468;DHT22;3267;48.794;9.928;2023-06-22T12:41:33;35.70;61.40
6468;DHT22;3267;48.794;9.928;2023-06-22T12:43:59;35.10;77.60
6468;DHT22;3267;48.794;9.928;2023-06-22T12:51:21;35.60;55.80
6468;DHT22;3267;48.794;9.928;2023-06-22T12:53:47;35.90;55.30
6468;DHT22;3267;48.794;9.928;2023-06-22T13:08:23;36.40;78.10
6468;DHT22;3267;48.794;9.928;2023-06-22T13:18:07;36.10;54.10
6468;DHT22;3267;48.794;9.928;2023-06-22T13:20:33;36.10;53.70
6468;DHT22;3267;48.794;9.928;2023-06-22T13:22:59;36.00;54.40
6468;DHT22;3267;48.794;9.928;2023-06-22T13:32:44;37.00;78.30
6468;DHT22;3267;48.794;9.928;2023-06-22T13:42:31;35.50;77.70
6468;DHT22;3267;48.794;9.928;2023-06-22T14:06:51;36.00;78.60
6468;DHT22;3267;48.794;9.928;2023-06-22T14:12:06;35.60;53.80
6468;DHT22;3267;48.794;9.928;2023-06-22T14:43:47;36.50;52.70
6468;DHT22;3267;48.794;9.928;2023-06-22T14:46:18;36.80;52.50
6468;DHT22;3267;48.794;9.928;2023-06-22T14:53:36;38.10;50.30
6468;DHT22;3267;48.794;9.928;2023-06-22T14:58:32;38.10;49.60
6468;DHT22;3267;48.794;9.928;2023-06-22T15:01:02;38.00;49.60
6468;DHT22;3267;48.794;9.928;2023-06-22T15:30:22;40.10;46.20
6468;DHT22;3267;48.794;9.928;2023-06-22T15:40:10;39.60;64.70
6468;DHT22;3267;48.794;9.928;2023-06-22T15:59:42;40.20;45.50
6468;DHT22;3267;48.794;9.928;2023-06-22T16:02:09;40.30;45.40
6468;DHT22;3267;48.794;9.928;2023-06-22T16:07:02;40.40;46.20
6468;DHT22;3267;48.794;9.928;2023-06-22T16:26:41;38.70;47.30
6468;DHT22;3267;48.794;9.928;2023-06-22T17:03:27;38.50;52.90
6468;DHT22;3267;48.794;9.928;2023-06-22T17:05:55;38.60;52.70
6468;DHT22;3267;48.794;9.928;2023-06-22T17:15:41;38.60;52.20
6468;DHT22;3267;48.794;9.928;2023-06-22T17:25:28;39.10;51.10
6468;DHT22;3267;48.794;9.928;2023-06-22T17:28:01;39.10;51.00
6468;DHT22;3267;48.794;9.928;2023-06-22T17:37:50;39.20;50.90
6468;DHT22;3267;48.794;9.928;2023-06-22T17:45:19;38.60;51.10
6468;DHT22;3267;48.794;9.928;2023-06-22T17:47:49;38.30;51.20
6468;DHT22;3267;48.794;9.928;2023-06-22T17:57:37;36.80;51.50
6468;DHT22;3267;48.794;9.928;2023-06-22T18:00:05;36.50;51.00
6468;DHT22;3267;48.794;9.928;2023-06-22T18:02:36;36.20;50.80
6468;DHT22;3267;48.794;9.928;2023-06-22T18:07:35;35.70;51.20
6468;DHT22;3267;48.794;9.928;2023-06-22T18:10:06;35.50;49.30
6468;DHT22;3267;48.794;9.928;2023-06-22T18:15:00;35.20;51.90
6468;DHT22;3267;48.794;9.928;2023-06-22T18:36:57;33.90;51.20
6468;DHT22;3267;48.794;9.928;2023-06-22T18:41:54;33.60;49.10
6468;DHT22;3267;48.794;9.928;2023-06-22T18:44:28;33.50;50.70
6468;DHT22;3267;48.794;9.928;2023-06-22T18:46:58;33.30;49.80
6468;DHT22;3267;48.794;9.928;2023-06-22T18:49:31;33.30;50.50
6468;DHT22;3267;48.794;9.928;2023-06-22T18:54:36;33.10;51.10
6468;DHT22;3267;48.794;9.928;2023-06-22T18:57:13;33.00;50.10
6468;DHT22;3267;48.794;9.928;2023-06-22T18:59:40;32.80;48.20
6468;DHT22;3267;48.794;9.928;2023-06-22T19:04:40;32.60;50.60
6468;DHT22;3267;48.794;9.928;2023-06-22T19:09:34;32.30;50.60
6468;DHT22;3267;48.794;9.928;2023-06-22T19:19:34;32.10;52.00
6468;DHT22;3267;48.794;9.928;2023-06-22T19:24:29;32.00;52.60
6468;DHT22;3267;48.794;9.928;2023-06-22T19:31:48;31.90;52.50
6468;DHT22;3267;48.794;9.928;2023-06-22T19:46:30;31.10;53.20
6468;DHT22;3267;48.794;9.928;2023-06-22T20:03:39;30.40;52.60
6468;DHT22;3267;48.794;9.928;2023-06-22T20:06:10;30.30;52.60
6468;DHT22;3267;48.794;9.928;2023-06-22T20:08:46;30.30;52.90
6468;DHT22;3267;48.794;9.928;2023-06-22T20:21:12;30.10;53.10
6468;DHT22;3267;48.794;9.928;2023-06-22T20:23:40;30.00;53.60
6468;DHT22;3267;48.794;9.928;2023-06-22T20:26:10;30.00;53.60
6468;DHT22;3267;48.794;9.928;2023-06-22T20:35:58;29.70;52.70
6468;DHT22;3267;48.794;9.928;2023-06-22T20:38:25;29.70;53.40
6468;DHT22;3267;48.794;9.928;2023-06-22T20:40:52;29.60;52.50
6468;DHT22;3267;48.794;9.928;2023-06-22T20:53:05;29.30;52.80
6468;DHT22;3267;48.794;9.928;2023-06-22T20:55:32;29.20;52.00
6468;DHT22;3267;48.794;9.928;2023-06-22T20:58:03;29.20;52.10
6468;DHT22;3267;48.794;9.928;2023-06-22T21:20:05;28.30;68.10
6468;DHT22;3267;48.794;9.928;2023-06-22T21:25:11;28.20;53.20
6468;DHT22;3267;48.794;9.928;2023-06-22T21:27:39;28.10;53.30
